createdAt,value
2023-04-02T00:01:01.511Z,100.00
2023-04-02T00:03:45.841Z,100.00
2023-04-02T00:06:44.473Z,100.00
2023-04-02T00:09:31.231Z,100.00
2023-04-02T00:12:00.415Z,100.00
2023-04-02T00:14:33.352Z,100.00
2023-04-02T00:17:02.573Z,100.00
2023-04-02T00:19:38.196Z,100.00
2023-04-02T00:22:08.772Z,100.00
2023-04-02T00:24:35.554Z,100.00
2023-04-02T00:27:01.922Z,100.00
2023-04-02T00:29:28.387Z,100.00
2023-04-02T00:31:58.837Z,100.00
2023-04-02T00:34:42.939Z,99.38
2023-04-02T00:37:23.561Z,99.44
2023-04-02T00:39:53.087Z,100.00
2023-04-02T00:42:21.124Z,100.00
2023-04-02T00:44:49.384Z,100.00
2023-04-02T00:47:21.384Z,100.00
2023-04-02T00:49:51.719Z,100.00
2023-04-02T00:52:22.592Z,99.95
2023-04-02T00:54:52.859Z,100.00
2023-04-02T00:57:26.559Z,98.81
2023-04-02T01:00:10.888Z,98.26
2023-04-02T01:02:40.629Z,99.80
2023-04-02T01:05:23.280Z,99.45
2023-04-02T01:08:12.892Z,99.31
2023-04-02T01:10:55.679Z,100.00
2023-04-02T01:13:40.617Z,100.00
2023-04-02T01:16:37.495Z,100.00
2023-04-02T01:19:18.237Z,99.53
2023-04-02T01:21:57.453Z,99.44
2023-04-02T01:24:29.749Z,100.00
2023-04-02T01:27:10.375Z,100.00
2023-04-02T01:29:46.110Z,99.56
2023-04-02T01:32:15.535Z,99.64
2023-04-02T01:34:45.204Z,100.00
2023-04-02T01:37:17.989Z,99.90
2023-04-02T01:40:18.326Z,99.67
2023-04-02T01:43:35.868Z,98.84
2023-04-02T01:46:24.588Z,98.65
2023-04-02T01:48:52.938Z,98.41
2023-04-02T01:51:32.212Z,98.29
2023-04-02T01:54:02.036Z,98.92
2023-04-02T01:56:30.451Z,98.33
2023-04-02T01:58:58.770Z,98.28
2023-04-02T02:01:31.986Z,98.67
2023-04-02T02:03:59.853Z,97.94
2023-04-02T02:06:26.352Z,98.11
2023-04-02T02:08:56.495Z,96.89
2023-04-02T02:11:26.922Z,99.25
2023-04-02T02:13:57.511Z,99.28
2023-04-02T02:16:27.078Z,98.61
2023-04-02T02:18:59.104Z,98.71
2023-04-02T02:21:47.204Z,99.13
2023-04-02T02:24:33.576Z,98.89
2023-04-02T02:27:14.918Z,97.75
2023-04-02T02:29:43.846Z,97.72
2023-04-02T02:32:12.019Z,98.60
2023-04-02T02:34:42.945Z,98.59
2023-04-02T02:37:28.224Z,97.86
2023-04-02T02:39:58.385Z,97.58
2023-04-02T02:42:40.698Z,96.66
2023-04-02T02:45:14.857Z,97.37
2023-04-02T02:47:42.531Z,98.51
2023-04-02T02:50:18.141Z,96.75
2023-04-02T02:52:50.769Z,96.30
2023-04-02T02:55:24.043Z,96.94
2023-04-02T02:57:56.143Z,97.05
2023-04-02T03:00:24.586Z,96.75
2023-04-02T03:02:54.624Z,95.30
2023-04-02T03:05:24.040Z,95.48
2023-04-02T03:07:53.279Z,95.42
2023-04-02T03:10:29.873Z,93.58
2023-04-02T03:13:19.718Z,94.26
2023-04-02T03:16:02.671Z,92.34
2023-04-02T03:18:42.453Z,92.31
2023-04-02T03:21:26.735Z,92.65
2023-04-02T03:23:57.577Z,92.41
2023-04-02T03:26:37.799Z,92.36
2023-04-02T03:29:28.487Z,92.84
2023-04-02T03:32:07.800Z,93.00
2023-04-02T03:34:44.494Z,93.57
2023-04-02T03:37:29.375Z,93.31
2023-04-02T03:40:04.514Z,92.28
2023-04-02T03:42:44.300Z,95.55
2023-04-02T03:45:16.278Z,95.15
2023-04-02T03:48:05.489Z,95.53
2023-04-02T03:50:36.961Z,93.95
2023-04-02T03:53:04.633Z,94.36
2023-04-02T03:55:36.980Z,93.71
2023-04-02T03:58:25.547Z,93.55
2023-04-02T04:01:10.201Z,95.00
2023-04-02T04:03:36.597Z,93.31
2023-04-02T04:06:19.662Z,93.32
2023-04-02T04:08:50.262Z,94.29
2023-04-02T04:11:22.616Z,93.57
2023-04-02T04:13:57.731Z,92.66
2023-04-02T04:16:32.279Z,91.65
2023-04-02T04:19:10.792Z,91.52
2023-04-02T04:21:37.481Z,91.65
2023-04-02T04:24:27.558Z,91.37
2023-04-02T04:27:09.451Z,92.18
2023-04-02T04:29:51.426Z,92.77
2023-04-02T04:32:27.528Z,92.21
2023-04-02T04:35:08.404Z,93.88
2023-04-02T04:37:39.332Z,93.16
2023-04-02T04:40:18.922Z,90.77
2023-04-02T04:42:47.411Z,91.67
2023-04-02T04:45:36.377Z,89.53
2023-04-02T04:48:16.643Z,89.58
2023-04-02T04:50:54.570Z,88.50
2023-04-02T04:53:23.991Z,88.98
2023-04-02T04:55:56.077Z,90.96
2023-04-02T04:58:33.590Z,90.17
2023-04-02T05:01:07.209Z,89.94
2023-04-02T05:03:44.940Z,89.35
2023-04-02T05:06:25.822Z,90.02
2023-04-02T05:08:59.119Z,90.68
2023-04-02T05:11:34.732Z,89.01
2023-04-02T05:14:06.778Z,88.97
2023-04-02T05:16:45.993Z,91.94
2023-04-02T05:19:30.901Z,93.06
2023-04-02T05:22:20.869Z,92.07
2023-04-02T05:24:56.879Z,91.13
2023-04-02T05:27:27.145Z,92.29
2023-04-02T05:30:23.591Z,92.11
2023-04-02T05:32:57.309Z,92.95
2023-04-02T05:35:32.640Z,92.38
2023-04-02T05:38:01.721Z,91.99
2023-04-02T05:40:36.281Z,92.00
2023-04-02T05:43:07.784Z,91.03
2023-04-02T05:45:38.862Z,90.78
2023-04-02T05:48:19.986Z,91.62
2023-04-02T05:50:53.140Z,91.01
2023-04-02T05:53:33.444Z,88.65
2023-04-02T05:56:21.695Z,88.70
2023-04-02T05:58:51.748Z,90.36
2023-04-02T06:01:45.320Z,88.06
2023-04-02T06:04:16.876Z,87.94
2023-04-02T06:06:49.634Z,88.47
2023-04-02T06:09:39.385Z,90.08
2023-04-02T06:12:24.295Z,90.40
2023-04-02T06:14:50.925Z,92.11
2023-04-02T06:17:19.249Z,91.29
2023-04-02T06:19:47.684Z,92.41
2023-04-02T06:22:36.829Z,93.19
2023-04-02T06:25:19.121Z,90.64
2023-04-02T06:27:47.409Z,91.78
2023-04-02T06:30:26.153Z,90.25
2023-04-02T06:32:52.528Z,87.89
2023-04-02T06:35:18.968Z,88.49
2023-04-02T06:37:51.915Z,87.95
2023-04-02T06:40:39.630Z,88.19
2023-04-02T06:43:16.280Z,90.57
2023-04-02T06:45:46.303Z,93.42
2023-04-02T06:48:21.344Z,91.71
2023-04-02T06:50:51.207Z,91.60
2023-04-02T06:53:24.301Z,90.87
2023-04-02T06:55:55.090Z,91.14
2023-04-02T06:58:21.654Z,90.99
2023-04-02T07:00:50.072Z,91.23
2023-04-02T07:03:24.086Z,90.21
2023-04-02T07:05:51.275Z,89.97
2023-04-02T07:08:21.272Z,89.45
2023-04-02T07:10:48.066Z,88.51
2023-04-02T07:13:23.006Z,88.43
2023-04-02T07:15:52.377Z,88.76
2023-04-02T07:18:26.875Z,88.11
2023-04-02T07:20:53.660Z,88.68
2023-04-02T07:23:21.116Z,87.80
2023-04-02T07:25:54.701Z,86.57
2023-04-02T07:28:22.924Z,88.87
2023-04-02T07:30:55.986Z,87.94
2023-04-02T07:33:25.852Z,87.14
2023-04-02T07:35:57.661Z,86.99
2023-04-02T07:38:24.454Z,84.82
2023-04-02T07:40:50.900Z,85.80
2023-04-02T07:43:17.454Z,84.34
2023-04-02T07:45:43.808Z,85.01
2023-04-02T07:48:14.564Z,85.53
2023-04-02T07:50:41.819Z,86.02
2023-04-02T07:53:17.038Z,83.68
2023-04-02T07:55:45.693Z,83.37
2023-04-02T07:58:12.162Z,83.65
2023-04-02T08:00:41.193Z,85.86
2023-04-02T08:03:07.857Z,84.47
2023-04-02T08:05:34.582Z,84.49
2023-04-02T08:08:01.505Z,83.10
2023-04-02T08:10:27.916Z,82.75
2023-04-02T08:12:55.042Z,82.47
2023-04-02T08:15:21.614Z,83.27
2023-04-02T08:17:48.293Z,82.05
2023-04-02T08:20:20.815Z,81.60
2023-04-02T08:23:10.950Z,81.93
2023-04-02T08:25:37.445Z,82.12
2023-04-02T08:28:03.992Z,80.52
2023-04-02T08:30:30.534Z,80.62
2023-04-02T08:32:58.182Z,79.76
2023-04-02T08:35:24.720Z,80.81
2023-04-02T08:37:52.406Z,80.94
2023-04-02T08:40:36.250Z,80.47
2023-04-02T08:43:38.883Z,81.03
2023-04-02T08:46:27.444Z,79.83
2023-04-02T08:48:58.306Z,77.75
2023-04-02T08:51:35.680Z,78.56
2023-04-02T08:54:21.090Z,77.99
2023-04-02T08:57:19.684Z,77.88
2023-04-02T08:59:47.156Z,78.19
2023-04-02T09:02:48.179Z,78.73
2023-04-02T09:05:31.413Z,79.02
2023-04-02T09:08:01.806Z,76.81
2023-04-02T09:10:42.473Z,78.87
2023-04-02T09:13:17.949Z,78.05
2023-04-02T09:15:44.789Z,77.29
2023-04-02T09:18:19.122Z,76.77
2023-04-02T09:20:48.102Z,76.75
2023-04-02T09:23:19.721Z,76.77
2023-04-02T09:26:03.546Z,76.90
2023-04-02T09:28:33.764Z,77.01
2023-04-02T09:31:21.638Z,76.57
2023-04-02T09:33:50.727Z,76.35
2023-04-02T09:36:33.537Z,75.51
2023-04-02T09:39:07.001Z,73.92
2023-04-02T09:41:50.177Z,74.50
2023-04-02T09:44:28.319Z,74.07
2023-04-02T09:47:03.392Z,73.82
2023-04-02T09:49:36.114Z,73.08
2023-04-02T09:52:25.855Z,74.40
2023-04-02T09:55:31.164Z,73.61
2023-04-02T09:58:14.124Z,74.81
2023-04-02T10:00:50.812Z,73.15
2023-04-02T10:03:35.330Z,73.48
2023-04-02T10:06:07.923Z,73.62
2023-04-02T10:08:39.134Z,71.59
2023-04-02T10:11:36.356Z,73.00
2023-04-02T10:14:20.814Z,71.86
2023-04-02T10:16:58.266Z,71.41
2023-04-02T10:19:36.041Z,70.34
2023-04-02T10:22:14.293Z,71.97
2023-04-02T10:24:42.831Z,71.50
2023-04-02T10:27:44.673Z,72.01
2023-04-02T10:30:36.422Z,71.75
2023-04-02T10:33:17.855Z,72.14
2023-04-02T10:35:56.224Z,71.16
2023-04-02T10:39:04.852Z,71.12
2023-04-02T10:41:40.201Z,70.26
2023-04-02T10:44:21.918Z,71.79
2023-04-02T10:47:05.024Z,71.60
2023-04-02T10:50:03.311Z,72.05
2023-04-02T10:52:39.277Z,71.50
2023-04-02T10:55:28.105Z,72.04
2023-04-02T11:02:36.213Z,69.74
2023-04-02T11:09:02.637Z,68.42
2023-04-02T11:11:44.382Z,68.34
2023-04-02T11:32:34.157Z,69.09
2023-04-02T11:35:07.113Z,68.74
2023-04-02T11:37:39.846Z,68.32
2023-04-02T11:40:16.342Z,69.05
2023-04-02T11:42:47.553Z,67.86
2023-04-02T11:45:20.932Z,68.03
2023-04-02T11:48:02.347Z,67.47
2023-04-02T11:50:37.558Z,68.10
2023-04-02T11:53:13.168Z,67.67
2023-04-02T11:56:07.461Z,67.02
2023-04-02T11:58:46.241Z,67.93
2023-04-02T12:01:47.511Z,67.13
2023-04-02T12:04:27.710Z,66.50
2023-04-02T12:07:01.208Z,66.45
2023-04-02T12:12:24.622Z,66.23
2023-04-02T12:14:54.566Z,66.14
2023-04-02T12:17:29.390Z,67.03
2023-04-02T12:20:03.588Z,67.23
2023-04-02T12:22:33.359Z,67.80
2023-04-02T12:25:18.582Z,66.30
2023-04-02T12:27:46.649Z,65.31
2023-04-02T12:30:16.670Z,65.54
2023-04-02T12:32:43.685Z,64.82
2023-04-02T12:35:32.391Z,64.98
2023-04-02T12:37:59.417Z,67.03
2023-04-02T12:40:28.708Z,65.35
2023-04-02T12:42:55.451Z,65.61
2023-04-02T12:45:26.159Z,64.41
2023-04-02T12:48:00.040Z,65.34
2023-04-02T12:50:26.719Z,64.59
2023-04-02T12:52:55.605Z,64.34
2023-04-02T12:55:24.540Z,64.91
2023-04-02T12:57:58.975Z,64.72
2023-04-02T13:04:08.562Z,65.08
2023-04-02T13:06:36.378Z,65.23
2023-04-02T13:09:06.042Z,63.49
2023-04-02T13:11:51.506Z,65.19
2023-04-02T13:14:22.681Z,64.65
2023-04-02T13:16:49.187Z,64.32
2023-04-02T13:22:31.924Z,63.83
2023-04-02T13:24:58.521Z,64.68
2023-04-02T13:27:25.004Z,64.33
2023-04-02T13:29:52.787Z,63.43
2023-04-02T13:32:22.234Z,62.91
2023-04-02T13:34:51.315Z,63.96
2023-04-02T13:37:17.711Z,63.67
2023-04-02T13:39:44.345Z,63.76
2023-04-02T13:42:12.878Z,64.99
2023-04-02T13:44:39.609Z,64.02
2023-04-02T13:47:06.329Z,62.96
2023-04-02T13:49:32.822Z,63.12
2023-04-02T13:52:46.837Z,62.49
2023-04-02T13:55:26.108Z,61.84
2023-04-02T13:57:52.531Z,60.88
2023-04-02T14:00:19.834Z,60.85
2023-04-02T14:03:15.061Z,61.62
2023-04-02T14:05:55.651Z,62.59
2023-04-02T14:08:59.081Z,60.92
2023-04-02T14:11:57.832Z,60.33
2023-04-02T14:14:57.446Z,61.28
2023-04-02T14:17:48.949Z,62.38
2023-04-02T14:20:44.353Z,59.55
2023-04-02T14:23:37.585Z,60.55
2023-04-02T14:26:39.402Z,61.44
2023-04-02T14:29:25.189Z,60.20
2023-04-02T14:32:14.840Z,61.19
2023-04-02T14:34:44.211Z,60.77
2023-04-02T14:37:30.751Z,61.92
2023-04-02T14:40:03.957Z,61.39
2023-04-02T14:42:48.753Z,60.89
2023-04-02T14:45:51.669Z,60.41
2023-04-02T14:48:52.090Z,59.96
2023-04-02T14:51:40.769Z,61.97
2023-04-02T14:54:28.074Z,60.02
2023-04-02T14:56:59.201Z,60.34
2023-04-02T14:59:50.669Z,60.09
2023-04-02T15:02:27.679Z,60.15
2023-04-02T15:05:03.381Z,60.35
2023-04-02T15:07:48.786Z,60.85
2023-04-02T15:10:29.485Z,58.55
2023-04-02T15:12:57.290Z,58.47
2023-04-02T15:15:52.520Z,59.18
2023-04-02T15:18:19.097Z,60.10
2023-04-02T15:21:09.385Z,57.66
2023-04-02T15:23:51.283Z,56.38
2023-04-02T15:26:36.236Z,56.01
2023-04-02T15:29:28.850Z,54.42
2023-04-02T15:32:03.283Z,54.73
2023-04-02T15:34:43.972Z,54.20
2023-04-02T15:37:35.841Z,53.19
2023-04-02T15:40:38.262Z,52.58
2023-04-02T15:43:29.604Z,53.61
2023-04-02T15:46:23.771Z,51.67
2023-04-02T15:48:56.399Z,53.13
2023-04-02T15:51:33.609Z,51.48
2023-04-02T15:54:16.151Z,51.41
2023-04-02T15:56:59.299Z,50.80
2023-04-02T15:59:43.927Z,49.43
2023-04-02T16:02:33.452Z,48.27
2023-04-02T16:05:10.128Z,49.53
2023-04-02T16:14:46.942Z,49.14
2023-04-02T16:17:36.705Z,52.06
2023-04-02T16:47:22.346Z,53.82
2023-04-02T17:08:06.979Z,53.87
2023-04-02T17:14:15.453Z,55.46
2023-04-02T17:16:54.820Z,54.72
2023-04-02T17:19:29.472Z,55.12
2023-04-02T17:22:18.799Z,54.23
2023-04-02T17:25:19.305Z,53.31
2023-04-02T17:27:51.790Z,53.63
2023-04-02T17:30:38.463Z,54.35
2023-04-02T17:33:17.331Z,53.44
2023-04-02T17:36:05.614Z,54.47
2023-04-02T17:39:05.661Z,54.85
2023-04-02T17:42:15.863Z,54.95
2023-04-02T17:44:46.668Z,54.50
2023-04-02T17:51:54.916Z,55.79
2023-04-02T17:54:46.645Z,55.36
2023-04-02T17:57:18.992Z,54.60
2023-04-02T18:00:02.492Z,54.76
2023-04-02T18:02:51.987Z,54.44
2023-04-02T18:05:54.482Z,55.10
2023-04-02T18:08:43.866Z,55.27
2023-04-02T18:11:29.635Z,55.29
2023-04-02T18:14:35.530Z,54.32
2023-04-02T18:17:19.511Z,55.01
2023-04-02T18:19:53.482Z,55.48
2023-04-02T18:23:03.233Z,54.54
2023-04-02T18:25:50.012Z,55.29
2023-04-02T18:28:23.000Z,55.53
2023-04-02T18:31:37.299Z,56.14
2023-04-02T18:34:34.822Z,55.58
2023-04-02T18:37:28.507Z,54.38
2023-04-02T18:40:10.183Z,55.75
2023-04-02T18:43:14.011Z,55.66
2023-04-02T18:45:51.692Z,54.07
2023-04-02T18:48:28.941Z,54.42
2023-04-02T18:50:55.759Z,54.85
2023-04-02T18:53:24.849Z,54.95
2023-04-02T18:56:13.102Z,55.18
2023-04-02T18:58:52.555Z,54.60
2023-04-02T19:01:29.874Z,54.17
2023-04-02T19:04:22.189Z,54.75
2023-04-02T19:07:11.206Z,55.22
2023-04-02T19:09:42.766Z,55.14
2023-04-02T19:12:19.089Z,54.39
2023-04-02T19:14:50.152Z,54.41
2023-04-02T19:17:31.452Z,55.36
2023-04-02T19:20:34.288Z,55.60
2023-04-02T19:23:23.533Z,55.37
2023-04-02T19:26:06.256Z,55.42
2023-04-02T19:28:59.829Z,55.71
2023-04-02T19:31:52.442Z,55.66
2023-04-02T19:34:39.656Z,56.18
2023-04-02T19:37:35.499Z,56.02
2023-04-02T19:40:39.270Z,55.30
2023-04-02T19:43:14.050Z,55.56
2023-04-02T19:45:43.147Z,56.00
2023-04-02T19:48:20.438Z,55.93
2023-04-02T19:50:53.232Z,55.84
2023-04-02T19:53:20.523Z,56.25
2023-04-02T19:55:49.382Z,55.92
2023-04-02T19:58:27.835Z,56.54
2023-04-02T20:00:54.875Z,56.28
2023-04-02T20:03:30.736Z,56.14
2023-04-02T20:06:02.768Z,55.82
2023-04-02T20:08:29.393Z,55.95
2023-04-02T20:10:58.428Z,56.58
2023-04-02T20:13:24.925Z,56.34
2023-04-02T20:15:52.891Z,56.45
2023-04-02T20:18:22.351Z,56.87
2023-04-02T20:20:49.364Z,56.54
2023-04-02T20:23:16.606Z,56.50
2023-04-02T20:25:53.338Z,56.24
2023-04-02T20:28:24.477Z,56.75
2023-04-02T20:30:51.426Z,56.98
2023-04-02T20:33:23.985Z,57.16
2023-04-02T20:35:51.966Z,57.00
2023-04-02T20:38:18.946Z,57.40
2023-04-02T20:40:51.934Z,56.88
2023-04-02T20:43:18.678Z,56.85
2023-04-02T20:45:54.562Z,57.28
2023-04-02T20:48:22.130Z,56.64
2023-04-02T20:50:49.181Z,56.48
2023-04-02T20:53:16.644Z,58.25
2023-04-02T20:55:46.601Z,57.57
2023-04-02T20:58:15.350Z,57.72
2023-04-02T21:00:42.080Z,57.67
2023-04-02T21:03:09.902Z,58.07
2023-04-02T21:05:47.182Z,58.29
2023-04-02T21:08:16.621Z,59.60
2023-04-02T21:10:43.007Z,60.15
2023-04-02T21:13:09.375Z,59.65
2023-04-02T21:15:43.094Z,60.36
2023-04-02T21:18:09.611Z,59.68
2023-04-02T21:20:35.987Z,59.49
2023-04-02T21:23:04.809Z,59.86
2023-04-02T21:25:31.490Z,58.34
2023-04-02T21:27:57.885Z,59.51
2023-04-02T21:30:24.313Z,59.10
2023-04-02T21:32:50.892Z,59.91
2023-04-02T21:35:17.400Z,60.01
2023-04-02T21:37:44.262Z,59.99
2023-04-02T21:40:11.800Z,60.72
2023-04-02T21:42:38.362Z,61.20
2023-04-02T21:45:08.216Z,61.92
2023-04-02T21:47:35.828Z,61.29
2023-04-02T21:50:02.381Z,61.31
2023-04-02T21:52:28.811Z,61.27
2023-04-02T21:54:55.253Z,61.95
2023-04-02T21:57:21.687Z,61.44
2023-04-02T21:59:48.109Z,61.52
2023-04-02T22:02:16.820Z,61.46
2023-04-02T22:04:43.186Z,62.00
2023-04-02T22:07:09.655Z,62.29
2023-04-02T22:09:36.164Z,63.03
2023-04-02T22:12:02.747Z,62.68
2023-04-02T22:14:29.442Z,63.26
2023-04-02T22:16:56.094Z,62.67
2023-04-02T22:19:22.573Z,62.91
2023-04-02T22:21:49.257Z,63.01
2023-04-02T22:24:18.764Z,62.32
2023-04-02T22:26:49.048Z,63.35
2023-04-02T22:29:16.186Z,64.12
2023-04-02T22:31:42.737Z,63.37
2023-04-02T22:34:09.507Z,63.43
2023-04-02T22:36:36.096Z,62.92
2023-04-02T22:39:05.551Z,62.82
2023-04-02T22:41:32.653Z,63.41
2023-04-02T22:44:00.816Z,64.09
2023-04-02T22:46:28.362Z,63.96
2023-04-02T22:48:55.731Z,64.18
2023-04-02T22:51:23.753Z,64.33
2023-04-02T22:53:52.449Z,64.01
2023-04-02T22:56:24.359Z,63.73
2023-04-02T22:58:50.937Z,63.99
2023-04-02T23:01:22.404Z,63.10
2023-04-02T23:03:49.320Z,63.90
2023-04-02T23:06:20.717Z,64.61
2023-04-02T23:08:47.402Z,64.29
2023-04-02T23:11:22.767Z,63.99
2023-04-02T23:13:51.556Z,64.16
2023-04-02T23:16:24.270Z,64.38
2023-04-02T23:18:50.846Z,65.62
2023-04-02T23:21:19.406Z,64.24
2023-04-02T23:23:47.005Z,64.71
2023-04-02T23:26:16.829Z,64.92
2023-04-02T23:28:43.983Z,65.10
2023-04-02T23:31:16.186Z,65.67
2023-04-02T23:33:43.143Z,66.24
2023-04-02T23:36:21.111Z,65.81
2023-04-02T23:38:47.712Z,65.64
2023-04-02T23:41:15.775Z,66.19
2023-04-02T23:43:42.635Z,66.66
2023-04-02T23:46:09.364Z,65.92
2023-04-02T23:48:35.743Z,66.66
2023-04-02T23:51:02.197Z,66.12
2023-04-02T23:53:28.552Z,65.67
2023-04-02T23:55:54.903Z,65.11
2023-04-02T23:58:21.366Z,65.70
